Time;durP1;ratioP1;P1;durP2;ratioP2;P2;SDS_P1;SDS_P2;PMS_P1;PMS_P2;Temp;Humidity;BMP_temperature;BMP_pressure;BME280_temperature;BME280_humidity;BME280_pressure;Samples;Min_cycle;Max_cycle;Signal;HPM_P1;HPM_P2
2021/10/16 00:02:14;;;;;;;;;;;17.70;43.80;;;;;;8236603;28;20409;-48
2021/10/16 00:06:16;;;;;;;;;;;17.70;43.80;;;;;;8235973;28;20453;-48
2021/10/16 00:10:16;;;;;;;;;;;17.70;43.90;;;;;;8237053;28;20302;-48
2021/10/16 00:14:16;;;;;;;;;;;17.70;43.80;;;;;;8236122;28;19914;-48
2021/10/16 00:18:17;;;;;;;;;;;17.70;43.90;;;;;;8235544;28;20006;-48
2021/10/16 00:22:21;;;;;;;;;;;17.70;43.90;;;;;;8236098;28;19914;-48
2021/10/16 00:26:21;;;;;;;;;;;17.70;43.80;;;;;;8236321;28;19929;-47
2021/10/16 00:30:22;;;;;;;;;;;17.70;43.90;;;;;;8235338;28;20005;-48
2021/10/16 00:34:22;;;;;;;;;;;17.70;43.90;;;;;;8235727;28;19914;-50
2021/10/16 00:38:22;;;;;;;;;;;17.70;43.90;;;;;;8235715;28;19914;-48
2021/10/16 00:42:23;;;;;;;;;;;17.70;43.90;;;;;;8235657;28;19914;-48
2021/10/16 00:46:23;;;;;;;;;;;17.70;43.90;;;;;;8235565;28;20000;-48
2021/10/16 00:50:24;;;;;;;;;;;17.60;43.80;;;;;;8235226;28;20012;-49
2021/10/16 00:54:25;;;;;;;;;;;17.60;43.80;;;;;;8234814;28;20335;-48
2021/10/16 00:58:25;;;;;;;;;;;17.60;43.80;;;;;;8234738;28;20418;-49
2021/10/16 01:02:26;;;;;;;;;;;17.60;43.80;;;;;;8235556;28;19993;-47
2021/10/16 01:06:26;;;;;;;;;;;17.60;43.80;;;;;;8233345;28;19922;-47
2021/10/16 01:10:27;;;;;;;;;;;17.60;43.80;;;;;;8234435;28;19945;-48
2021/10/16 01:14:28;;;;;;;;;;;17.70;43.80;;;;;;8234160;28;19922;-49
2021/10/16 01:18:28;;;;;;;;;;;17.60;43.80;;;;;;8234533;28;19954;-48
2021/10/16 01:22:30;;;;;;;;;;;17.60;43.80;;;;;;8234304;28;19924;-47
2021/10/16 01:26:31;;;;;;;;;;;17.60;43.80;;;;;;8233778;28;19929;-48
2021/10/16 01:30:31;;;;;;;;;;;17.60;43.80;;;;;;8233590;28;20013;-47
2021/10/16 01:34:32;;;;;;;;;;;17.60;43.80;;;;;;8233971;28;19914;-48
2021/10/16 01:38:33;;;;;;;;;;;17.60;43.70;;;;;;8233603;28;20290;-48
2021/10/16 01:42:35;;;;;;;;;;;17.60;43.80;;;;;;8233148;28;19914;-49
2021/10/16 01:46:36;;;;;;;;;;;17.60;43.70;;;;;;8233562;28;19926;-48
2021/10/16 01:50:41;;;;;;;;;;;17.60;43.80;;;;;;8233492;28;19918;-47
2021/10/16 01:54:41;;;;;;;;;;;17.60;43.70;;;;;;8234302;28;19925;-48
2021/10/16 01:58:42;;;;;;;;;;;17.60;43.70;;;;;;8233180;28;19918;-50
2021/10/16 02:02:42;;;;;;;;;;;17.60;43.70;;;;;;8232607;28;19937;-47
2021/10/16 02:06:43;;;;;;;;;;;17.50;43.70;;;;;;8232891;28;20329;-48
2021/10/16 02:10:43;;;;;;;;;;;17.60;43.70;;;;;;8233250;28;20335;-47
2021/10/16 02:14:44;;;;;;;;;;;17.50;43.70;;;;;;8231284;28;19957;-47
2021/10/16 02:18:44;;;;;;;;;;;17.50;43.70;;;;;;8233910;28;19917;-47
2021/10/16 02:22:45;;;;;;;;;;;17.60;43.70;;;;;;8233676;28;19914;-47
2021/10/16 02:26:45;;;;;;;;;;;17.50;43.60;;;;;;8232932;28;19922;-48
2021/10/16 02:30:46;;;;;;;;;;;17.50;43.60;;;;;;8233866;28;19929;-50
2021/10/16 02:34:47;;;;;;;;;;;17.50;43.60;;;;;;8232566;28;19918;-48
2021/10/16 02:38:47;;;;;;;;;;;17.50;43.60;;;;;;8232127;28;19914;-47
2021/10/16 02:42:48;;;;;;;;;;;17.50;43.60;;;;;;8232783;28;19918;-47
2021/10/16 02:46:49;;;;;;;;;;;17.50;43.60;;;;;;8233025;28;19926;-48
2021/10/16 02:50:49;;;;;;;;;;;17.50;43.60;;;;;;8234098;28;19914;-47
2021/10/16 02:54:50;;;;;;;;;;;17.50;43.60;;;;;;8238847;28;19918;-47
2021/10/16 02:58:51;;;;;;;;;;;17.40;43.60;;;;;;8238591;28;20005;-48
2021/10/16 03:02:51;;;;;;;;;;;17.50;43.60;;;;;;8238655;28;19945;-47
2021/10/16 03:06:52;;;;;;;;;;;17.40;43.50;;;;;;8238154;28;20291;-52
2021/10/16 03:10:52;;;;;;;;;;;17.40;43.60;;;;;;8238361;28;19925;-50
2021/10/16 03:14:53;;;;;;;;;;;17.40;43.60;;;;;;8237658;28;20287;-48
2021/10/16 03:18:53;;;;;;;;;;;17.50;43.60;;;;;;8238093;28;19922;-47
2021/10/16 03:22:53;;;;;;;;;;;17.40;43.60;;;;;;8238661;28;19969;-47
2021/10/16 03:26:54;;;;;;;;;;;17.40;43.60;;;;;;8237158;28;20065;-48
2021/10/16 03:30:54;;;;;;;;;;;17.50;43.60;;;;;;8237847;28;19914;-48
2021/10/16 03:34:55;;;;;;;;;;;17.40;43.50;;;;;;8237496;28;19914;-47
2021/10/16 03:38:55;;;;;;;;;;;17.40;43.50;;;;;;8237534;28;19914;-48
2021/10/16 03:42:56;;;;;;;;;;;17.40;43.50;;;;;;8237313;28;19921;-47
2021/10/16 03:46:56;;;;;;;;;;;17.40;43.50;;;;;;8236859;28;19926;-47
2021/10/16 03:50:57;;;;;;;;;;;17.40;43.50;;;;;;8236649;28;19997;-47
2021/10/16 03:54:57;;;;;;;;;;;17.40;43.50;;;;;;8237452;28;19918;-47
2021/10/16 03:58:58;;;;;;;;;;;17.40;43.50;;;;;;8236871;28;20000;-48
2021/10/16 04:03:05;;;;;;;;;;;17.40;43.50;;;;;;8235544;28;19930;-48
2021/10/16 04:07:06;;;;;;;;;;;17.40;43.40;;;;;;8236643;28;19922;-47
2021/10/16 04:11:06;;;;;;;;;;;17.40;43.50;;;;;;8235506;28;20010;-47
2021/10/16 04:15:07;;;;;;;;;;;17.40;43.50;;;;;;8236581;28;19914;-48
2021/10/16 04:19:07;;;;;;;;;;;17.40;43.40;;;;;;8236341;28;19921;-47
2021/10/16 04:23:08;;;;;;;;;;;17.40;43.40;;;;;;8236024;28;20360;-47
2021/10/16 04:27:08;;;;;;;;;;;17.40;43.40;;;;;;8235239;28;19949;-47
2021/10/16 04:31:09;;;;;;;;;;;17.40;43.40;;;;;;8236702;28;20004;-49
2021/10/16 04:35:09;;;;;;;;;;;17.40;43.40;;;;;;8235590;28;19961;-47
2021/10/16 04:39:10;;;;;;;;;;;17.30;43.30;;;;;;8234989;28;19952;-48
2021/10/16 04:43:10;;;;;;;;;;;17.30;43.30;;;;;;8235232;28;19914;-48
2021/10/16 04:47:11;;;;;;;;;;;17.30;43.40;;;;;;8235213;28;19929;-48
2021/10/16 04:51:12;;;;;;;;;;;17.30;43.30;;;;;;8235306;28;19957;-48
2021/10/16 04:55:12;;;;;;;;;;;17.30;43.30;;;;;;8234933;28;19918;-48
2021/10/16 04:59:13;;;;;;;;;;;17.30;43.40;;;;;;8234685;28;19925;-47
2021/10/16 05:03:13;;;;;;;;;;;17.30;43.30;;;;;;8234340;28;19921;-47
2021/10/16 05:07:13;;;;;;;;;;;17.30;43.30;;;;;;8235153;28;19926;-48
2021/10/16 05:11:14;;;;;;;;;;;17.30;43.30;;;;;;8234433;28;19914;-48
2021/10/16 05:15:14;;;;;;;;;;;17.30;43.30;;;;;;8233144;28;20276;-47
2021/10/16 05:19:15;;;;;;;;;;;17.30;43.30;;;;;;8234215;28;20008;-48
2021/10/16 05:23:16;;;;;;;;;;;17.30;43.30;;;;;;8234830;28;19913;-47
2021/10/16 05:27:16;;;;;;;;;;;17.30;43.20;;;;;;8233487;28;20363;-48
2021/10/16 05:31:16;;;;;;;;;;;17.20;43.20;;;;;;8233906;28;20283;-48
2021/10/16 05:35:17;;;;;;;;;;;17.20;43.20;;;;;;8233934;28;20388;-48
2021/10/16 05:39:17;;;;;;;;;;;17.20;43.20;;;;;;8233301;28;19924;-48
2021/10/16 05:43:18;;;;;;;;;;;17.20;43.20;;;;;;8234332;28;19921;-47
2021/10/16 05:47:18;;;;;;;;;;;17.20;43.20;;;;;;8233300;28;19921;-49
2021/10/16 05:51:19;;;;;;;;;;;17.20;43.20;;;;;;8233028;28;20287;-48
2021/10/16 05:55:19;;;;;;;;;;;17.20;43.20;;;;;;8233791;28;19918;-48
2021/10/16 05:59:20;;;;;;;;;;;17.20;43.20;;;;;;8234000;28;20363;-47
2021/10/16 06:03:21;;;;;;;;;;;17.20;43.20;;;;;;8232899;28;20299;-48
2021/10/16 06:07:21;;;;;;;;;;;17.20;43.20;;;;;;8232957;28;20012;-47
2021/10/16 06:11:22;;;;;;;;;;;17.20;43.20;;;;;;8233067;28;19968;-48
2021/10/16 06:15:22;;;;;;;;;;;17.20;43.20;;;;;;8232916;28;19914;-49
2021/10/16 06:19:23;;;;;;;;;;;17.20;43.10;;;;;;8233235;28;20385;-48
2021/10/16 06:23:23;;;;;;;;;;;17.20;43.20;;;;;;8233177;28;20287;-48
2021/10/16 06:27:26;;;;;;;;;;;17.20;43.10;;;;;;8237010;28;20521;-48
2021/10/16 06:31:27;;;;;;;;;;;17.20;43.20;;;;;;8239119;28;19917;-49
2021/10/16 06:35:27;;;;;;;;;;;17.20;43.10;;;;;;8240035;28;19993;-48
2021/10/16 06:39:27;;;;;;;;;;;17.20;43.10;;;;;;8238660;28;19945;-49
2021/10/16 06:43:28;;;;;;;;;;;17.20;43.10;;;;;;8239152;28;19914;-48
2021/10/16 06:47:29;;;;;;;;;;;17.20;43.10;;;;;;8238554;28;19933;-48
2021/10/16 06:51:29;;;;;;;;;;;17.20;43.10;;;;;;8239136;28;19988;-48
2021/10/16 06:55:30;;;;;;;;;;;17.20;43.10;;;;;;8238520;28;19925;-50
2021/10/16 06:59:30;;;;;;;;;;;17.20;43.10;;;;;;8238622;28;19914;-48
2021/10/16 07:03:31;;;;;;;;;;;17.20;43.10;;;;;;8237017;28;19914;-51
2021/10/16 07:07:31;;;;;;;;;;;17.20;43.10;;;;;;8238086;28;19984;-48
2021/10/16 07:11:32;;;;;;;;;;;17.20;43.20;;;;;;8238932;28;19952;-50
2021/10/16 07:15:33;;;;;;;;;;;17.20;43.20;;;;;;8236252;28;19917;-48
2021/10/16 07:19:33;;;;;;;;;;;17.20;43.20;;;;;;8238080;28;19976;-49
2021/10/16 07:23:34;;;;;;;;;;;17.20;43.10;;;;;;8237892;28;19914;-49
2021/10/16 07:27:35;;;;;;;;;;;17.20;43.20;;;;;;8237968;28;19922;-49
2021/10/16 07:31:35;;;;;;;;;;;17.20;43.20;;;;;;8237833;28;19921;-49
2021/10/16 07:35:36;;;;;;;;;;;17.20;43.20;;;;;;8237715;28;20016;-49
2021/10/16 07:39:36;;;;;;;;;;;17.20;43.10;;;;;;8235559;28;19945;-51
2021/10/16 07:43:37;;;;;;;;;;;17.30;43.10;;;;;;8238037;28;20291;-49
2021/10/16 07:47:37;;;;;;;;;;;17.30;43.20;;;;;;8236996;28;19922;-48
2021/10/16 07:51:37;;;;;;;;;;;17.30;43.20;;;;;;8236529;28;19914;-49
2021/10/16 07:55:38;;;;;;;;;;;17.30;43.10;;;;;;8236970;28;19940;-49
2021/10/16 07:59:38;;;;;;;;;;;17.30;43.10;;;;;;8236558;28;19976;-49
2021/10/16 08:03:39;;;;;;;;;;;17.30;43.20;;;;;;8236756;28;19914;-49
2021/10/16 08:07:41;;;;;;;;;;;17.30;43.20;;;;;;8236588;28;19976;-49
2021/10/16 08:11:41;;;;;;;;;;;17.30;43.30;;;;;;8236335;28;20013;-49
2021/10/16 08:15:42;;;;;;;;;;;17.30;43.30;;;;;;8235955;28;19925;-49
2021/10/16 08:19:42;;;;;;;;;;;17.30;43.30;;;;;;8236731;28;19914;-49
2021/10/16 08:23:43;;;;;;;;;;;17.30;43.40;;;;;;8235846;28;20284;-49
2021/10/16 08:27:46;;;;;;;;;;;17.30;43.40;;;;;;8235821;28;20021;-49
2021/10/16 08:31:46;;;;;;;;;;;17.30;43.40;;;;;;8235871;28;20084;-50
2021/10/16 08:35:47;;;;;;;;;;;17.30;43.40;;;;;;8235702;28;20364;-49
2021/10/16 08:39:47;;;;;;;;;;;17.30;43.40;;;;;;8235750;28;19914;-49
2021/10/16 08:43:48;;;;;;;;;;;17.30;43.40;;;;;;8235376;28;19918;-49
2021/10/16 08:47:48;;;;;;;;;;;17.30;43.50;;;;;;8232666;28;20022;-49
2021/10/16 08:51:49;;;;;;;;;;;17.30;43.50;;;;;;8234785;28;19922;-50
2021/10/16 08:55:50;;;;;;;;;;;17.30;43.50;;;;;;8235686;28;19922;-49
2021/10/16 08:59:51;;;;;;;;;;;17.30;43.50;;;;;;8234229;28;19937;-49
2021/10/16 09:03:51;;;;;;;;;;;17.40;43.60;;;;;;8235010;28;19975;-49
2021/10/16 09:07:52;;;;;;;;;;;17.40;43.80;;;;;;8234534;28;19922;-48
2021/10/16 09:11:55;;;;;;;;;;;17.30;43.60;;;;;;8234862;28;19921;-49
2021/10/16 09:15:56;;;;;;;;;;;17.40;43.60;;;;;;8234621;28;19949;-49
2021/10/16 09:20:07;;;;;;;;;;;17.40;43.60;;;;;;8234489;28;19964;-50
2021/10/16 09:24:10;;;;;;;;;;;17.40;43.60;;;;;;8233743;28;20013;-49
2021/10/16 09:28:17;;;;;;;;;;;17.40;43.60;;;;;;8234137;28;20375;-50
2021/10/16 09:32:19;;;;;;;;;;;17.40;43.60;;;;;;8234559;28;19914;-51
2021/10/16 09:36:20;;;;;;;;;;;17.50;43.70;;;;;;8233441;28;19914;-48
2021/10/16 09:40:33;;;;;;;;;;;17.40;43.70;;;;;;8234208;28;19914;-48
2021/10/16 09:44:34;;;;;;;;;;;17.40;43.60;;;;;;8233663;28;20028;-48
2021/10/16 09:48:36;;;;;;;;;;;17.40;43.70;;;;;;8233634;28;20026;-47
2021/10/16 09:52:38;;;;;;;;;;;17.50;43.80;;;;;;8234447;28;20372;-49
2021/10/16 09:56:39;;;;;;;;;;;17.50;43.80;;;;;;8233557;28;20355;-49
2021/10/16 10:00:39;;;;;;;;;;;17.50;43.70;;;;;;8232381;28;19921;-48
2021/10/16 10:04:41;;;;;;;;;;;17.50;43.70;;;;;;8232340;28;19973;-47
2021/10/16 10:08:41;;;;;;;;;;;17.60;43.80;;;;;;8233600;28;19922;-48
2021/10/16 10:12:42;;;;;;;;;;;17.60;43.80;;;;;;8233394;28;20295;-48
2021/10/16 10:16:43;;;;;;;;;;;17.60;43.70;;;;;;8232967;28;19914;-47
2021/10/16 10:20:44;;;;;;;;;;;17.70;43.70;;;;;;8232696;28;20264;-48
2021/10/16 10:24:46;;;;;;;;;;;17.80;43.70;;;;;;8233451;28;19968;-49
2021/10/16 10:28:57;;;;;;;;;;;17.80;43.60;;;;;;8232775;28;19918;-47
2021/10/16 10:33:20;;;;;;;;;;;17.80;43.60;;;;;;8232254;28;19973;-47
2021/10/16 10:37:21;;;;;;;;;;;17.90;43.60;;;;;;8232828;28;19952;-48
2021/10/16 10:41:21;;;;;;;;;;;17.90;43.60;;;;;;8232598;28;19997;-49
2021/10/16 10:45:24;;;;;;;;;;;17.90;43.60;;;;;;8232934;28;20343;-48
2021/10/16 10:49:40;;;;;;;;;;;17.90;44.20;;;;;;8232805;28;20288;-48
2021/10/16 10:53:41;;;;;;;;;;;18.00;43.80;;;;;;8232866;28;19918;-48
2021/10/16 10:57:45;;;;;;;;;;;18.00;43.90;;;;;;8231896;28;19937;-49
2021/10/16 11:01:51;;;;;;;;;;;18.00;43.80;;;;;;8232490;28;19918;-51
2021/10/16 11:05:52;;;;;;;;;;;18.00;43.80;;;;;;8232708;28;19926;-52
2021/10/16 11:09:54;;;;;;;;;;;18.00;43.80;;;;;;8232210;28;19936;-49
2021/10/16 11:14:07;;;;;;;;;;;18.00;43.70;;;;;;8237309;28;19914;-49
2021/10/16 11:18:11;;;;;;;;;;;18.00;43.70;;;;;;8237858;28;20037;-47
2021/10/16 11:22:11;;;;;;;;;;;18.10;43.80;;;;;;8238852;28;19913;-49
2021/10/16 11:26:12;;;;;;;;;;;18.10;43.80;;;;;;8237958;28;19929;-47
2021/10/16 11:30:17;;;;;;;;;;;18.10;43.70;;;;;;8237429;28;19969;-48
2021/10/16 11:34:18;;;;;;;;;;;18.10;43.80;;;;;;8237890;28;19918;-49
2021/10/16 11:38:22;;;;;;;;;;;18.10;43.80;;;;;;8237653;28;19996;-48
2021/10/16 11:42:22;;;;;;;;;;;18.10;43.80;;;;;;8237774;28;19910;-48
2021/10/16 11:46:24;;;;;;;;;;;18.10;43.80;;;;;;8237641;28;19925;-50
2021/10/16 11:50:28;;;;;;;;;;;18.10;43.70;;;;;;8237398;28;20375;-49
2021/10/16 11:54:28;;;;;;;;;;;18.10;43.70;;;;;;8236901;28;19918;-50
2021/10/16 11:58:29;;;;;;;;;;;18.10;43.70;;;;;;8237672;28;19921;-49
2021/10/16 12:02:33;;;;;;;;;;;18.10;43.70;;;;;;8236776;28;19945;-49
2021/10/16 12:06:34;;;;;;;;;;;18.20;43.70;;;;;;8236184;28;19929;-49
2021/10/16 12:10:37;;;;;;;;;;;18.20;43.70;;;;;;8236623;28;19921;-49
2021/10/16 12:14:37;;;;;;;;;;;18.20;43.80;;;;;;8236768;28;20375;-49
2021/10/16 12:18:47;;;;;;;;;;;18.20;43.70;;;;;;8236661;28;19921;-50
2021/10/16 12:22:55;;;;;;;;;;;18.20;43.80;;;;;;8235726;28;19926;-48
2021/10/16 12:27:05;;;;;;;;;;;18.20;43.80;;;;;;8235669;28;19926;-51
2021/10/16 12:31:08;;;;;;;;;;;18.20;43.80;;;;;;8235999;28;19961;-50
2021/10/16 12:35:17;;;;;;;;;;;18.20;43.80;;;;;;8236040;28;19941;-52
2021/10/16 12:39:29;;;;;;;;;;;18.20;43.80;;;;;;8236232;28;19925;-49
2021/10/16 12:43:30;;;;;;;;;;;18.20;43.80;;;;;;8236047;28;19960;-48
2021/10/16 12:47:30;;;;;;;;;;;18.20;43.80;;;;;;8235421;28;19960;-49
2021/10/16 12:51:38;;;;;;;;;;;18.30;44.40;;;;;;8234699;28;19914;-51
2021/10/16 12:55:40;;;;;;;;;;;18.30;43.80;;;;;;8235873;28;19918;-49
2021/10/16 12:59:41;;;;;;;;;;;18.30;43.80;;;;;;8235028;28;20299;-47
2021/10/16 13:03:41;;;;;;;;;;;18.30;43.80;;;;;;8233788;28;20016;-51
2021/10/16 13:07:42;;;;;;;;;;;18.30;43.90;;;;;;8235076;28;20001;-48
2021/10/16 13:11:42;;;;;;;;;;;18.30;43.90;;;;;;8234225;28;20381;-48
2021/10/16 13:15:43;;;;;;;;;;;18.30;43.90;;;;;;8235297;28;20338;-48
2021/10/16 13:19:43;;;;;;;;;;;18.30;43.80;;;;;;8234952;28;19937;-49
2021/10/16 13:23:44;;;;;;;;;;;18.30;43.80;;;;;;8233977;28;19914;-49
2021/10/16 13:27:44;;;;;;;;;;;18.30;43.80;;;;;;8234463;28;20008;-52
2021/10/16 13:31:45;;;;;;;;;;;18.40;43.80;;;;;;8234999;28;19918;-51
2021/10/16 13:35:45;;;;;;;;;;;18.40;43.80;;;;;;8232954;28;19954;-48
2021/10/16 13:39:46;;;;;;;;;;;18.40;43.80;;;;;;8233818;28;20371;-50
2021/10/16 13:43:47;;;;;;;;;;;18.40;43.90;;;;;;8233940;28;19962;-50
2021/10/16 13:47:47;;;;;;;;;;;18.40;43.90;;;;;;8234037;28;19922;-47
2021/10/16 13:51:48;;;;;;;;;;;18.40;43.80;;;;;;8200579;28;19914;-49
2021/10/16 13:55:48;;;;;;;;;;;18.40;43.80;;;;;;8223761;28;19925;-50
2021/10/16 13:59:49;;;;;;;;;;;18.40;43.80;;;;;;8233087;28;20015;-50
2021/10/16 14:03:49;;;;;;;;;;;18.40;43.80;;;;;;8233344;28;19941;-51
2021/10/16 14:07:49;;;;;;;;;;;18.40;43.80;;;;;;8233613;28;19927;-48
2021/10/16 14:11:50;;;;;;;;;;;18.40;43.80;;;;;;8232596;28;19949;-53
2021/10/16 14:15:51;;;;;;;;;;;18.40;43.80;;;;;;8233419;28;19937;-49
2021/10/16 14:19:52;;;;;;;;;;;18.40;43.80;;;;;;8233173;28;20378;-48
2021/10/16 14:23:52;;;;;;;;;;;18.40;43.80;;;;;;8233516;28;19914;-48
2021/10/16 14:27:53;;;;;;;;;;;18.50;43.90;;;;;;8232773;28;20505;-50
2021/10/16 14:31:53;;;;;;;;;;;18.40;43.80;;;;;;8232881;28;19914;-52
2021/10/16 14:35:54;;;;;;;;;;;18.40;43.90;;;;;;8232551;28;19914;-50
2021/10/16 14:39:54;;;;;;;;;;;18.50;43.90;;;;;;8233105;28;20327;-50
2021/10/16 14:43:55;;;;;;;;;;;18.50;43.90;;;;;;8233165;28;19914;-49
2021/10/16 14:47:55;;;;;;;;;;;18.50;43.90;;;;;;8236181;28;19922;-50
2021/10/16 14:51:55;;;;;;;;;;;18.50;43.90;;;;;;8238976;28;19917;-51
2021/10/16 14:55:56;;;;;;;;;;;18.50;43.90;;;;;;8238820;28;20327;-50
2021/10/16 14:59:56;;;;;;;;;;;18.50;43.90;;;;;;8238910;28;20336;-52
2021/10/16 15:03:57;;;;;;;;;;;18.50;43.90;;;;;;8238608;28;19918;-50
2021/10/16 15:07:57;;;;;;;;;;;18.50;43.90;;;;;;8238358;28;19926;-49
2021/10/16 15:11:58;;;;;;;;;;;18.50;43.90;;;;;;8237745;28;19914;-49
2021/10/16 15:15:58;;;;;;;;;;;18.50;43.90;;;;;;8238749;28;19944;-49
2021/10/16 15:19:59;;;;;;;;;;;18.50;43.90;;;;;;8237694;28;19918;-52
2021/10/16 15:24:00;;;;;;;;;;;18.50;43.90;;;;;;8237775;28;19968;-50
2021/10/16 15:28:00;;;;;;;;;;;18.60;43.90;;;;;;8238260;28;19929;-48
2021/10/16 15:32:01;;;;;;;;;;;18.60;43.90;;;;;;8238115;28;19910;-50
2021/10/16 15:36:04;;;;;;;;;;;18.50;43.90;;;;;;8238119;28;20288;-50
2021/10/16 15:40:05;;;;;;;;;;;18.50;43.90;;;;;;8237311;28;19914;-53
2021/10/16 15:44:06;;;;;;;;;;;18.50;43.90;;;;;;8237193;28;20013;-49
2021/10/16 15:48:07;;;;;;;;;;;18.50;43.90;;;;;;8236519;28;19922;-50
2021/10/16 15:52:08;;;;;;;;;;;18.50;43.90;;;;;;8237625;28;19950;-49
2021/10/16 15:56:08;;;;;;;;;;;18.60;44.00;;;;;;8235564;28;19922;-47
2021/10/16 16:00:11;;;;;;;;;;;18.50;43.90;;;;;;8229468;28;19922;-46
2021/10/16 16:04:11;;;;;;;;;;;18.50;44.10;;;;;;8236110;28;19933;-49
2021/10/16 16:08:12;;;;;;;;;;;18.50;43.70;;;;;;8234527;28;19929;-45
2021/10/16 16:12:12;;;;;;;;;;;18.40;44.10;;;;;;8232421;28;19961;-47
2021/10/16 16:16:14;;;;;;;;;;;18.30;44.50;;;;;;8235311;28;19941;-46
2021/10/16 16:20:15;;;;;;;;;;;18.30;44.40;;;;;;8224862;28;19929;-47
2021/10/16 16:24:15;;;;;;;;;;;18.40;44.70;;;;;;8231562;28;20391;-48
2021/10/16 16:28:16;;;;;;;;;;;18.40;44.90;;;;;;8233556;28;19929;-49
2021/10/16 16:32:16;;;;;;;;;;;18.50;45.00;;;;;;8235364;28;19968;-47
2021/10/16 16:36:17;;;;;;;;;;;18.60;44.90;;;;;;8234249;28;19925;-54
2021/10/16 16:40:17;;;;;;;;;;;18.70;45.00;;;;;;8226319;28;19972;-50
2021/10/16 16:44:18;;;;;;;;;;;18.80;45.50;;;;;;8232011;28;19914;-50
2021/10/16 16:48:18;;;;;;;;;;;18.80;45.70;;;;;;8229321;28;19928;-53
2021/10/16 16:52:19;;;;;;;;;;;18.90;46.10;;;;;;8231974;28;19941;-47
2021/10/16 16:56:22;;;;;;;;;;;18.80;45.40;;;;;;8228329;28;20003;-46
2021/10/16 17:00:22;;;;;;;;;;;18.70;45.40;;;;;;8234670;28;19914;-48
2021/10/16 17:04:23;;;;;;;;;;;18.50;45.30;;;;;;8232148;28;19914;-48
2021/10/16 17:08:23;;;;;;;;;;;18.30;46.10;;;;;;8228853;28;19921;-49
2021/10/16 17:12:24;;;;;;;;;;;18.10;46.00;;;;;;8233301;28;19914;-50
2021/10/16 17:16:25;;;;;;;;;;;18.20;45.90;;;;;;8234327;28;19961;-50
2021/10/16 17:20:26;;;;;;;;;;;18.30;45.70;;;;;;8235323;28;19969;-49
2021/10/16 17:24:27;;;;;;;;;;;18.40;45.60;;;;;;8233806;28;19918;-49
2021/10/16 17:28:27;;;;;;;;;;;18.40;45.40;;;;;;8234045;28;19926;-50
2021/10/16 17:32:28;;;;;;;;;;;18.50;45.30;;;;;;8234147;28;20005;-49
2021/10/16 17:36:31;;;;;;;;;;;18.50;45.20;;;;;;8234280;28;20004;-50
2021/10/16 17:40:31;;;;;;;;;;;18.50;45.20;;;;;;8234027;28;20363;-50
2021/10/16 17:44:32;;;;;;;;;;;18.50;45.10;;;;;;8234057;28;20009;-49
2021/10/16 17:48:32;;;;;;;;;;;18.60;45.20;;;;;;8233366;28;19914;-50
2021/10/16 17:52:33;;;;;;;;;;;18.60;45.20;;;;;;8233753;28;19934;-50
2021/10/16 17:56:33;;;;;;;;;;;18.50;45.10;;;;;;8234097;28;19914;-49
2021/10/16 18:00:36;;;;;;;;;;;18.60;45.00;;;;;;8233226;28;19927;-49
2021/10/16 18:04:36;;;;;;;;;;;18.60;45.00;;;;;;8233331;28;19918;-50
2021/10/16 18:08:38;;;;;;;;;;;18.60;45.00;;;;;;8233151;28;19957;-49
2021/10/16 18:12:39;;;;;;;;;;;18.60;44.90;;;;;;8233353;28;19910;-50
2021/10/16 18:16:39;;;;;;;;;;;18.60;44.90;;;;;;8232987;28;19936;-49
2021/10/16 18:20:40;;;;;;;;;;;18.60;44.90;;;;;;8232376;28;19914;-50
2021/10/16 18:24:41;;;;;;;;;;;18.50;44.90;;;;;;8232337;28;19914;-49
2021/10/16 18:28:42;;;;;;;;;;;18.50;44.90;;;;;;8233256;28;19953;-49
2021/10/16 18:32:42;;;;;;;;;;;18.60;44.90;;;;;;8232496;28;19917;-50
2021/10/16 18:36:43;;;;;;;;;;;18.50;44.90;;;;;;8232860;28;19921;-52
2021/10/16 18:40:44;;;;;;;;;;;18.50;44.90;;;;;;8232771;28;19921;-49
2021/10/16 18:44:44;;;;;;;;;;;18.50;44.80;;;;;;8232243;28;19918;-50
2021/10/16 18:48:45;;;;;;;;;;;18.50;44.80;;;;;;8233214;28;19921;-51
2021/10/16 18:52:45;;;;;;;;;;;18.50;44.80;;;;;;8232929;28;20256;-48
2021/10/16 18:56:46;;;;;;;;;;;18.50;44.80;;;;;;8232256;28;19950;-52
2021/10/16 19:00:47;;;;;;;;;;;18.50;44.80;;;;;;8232666;28;19929;-51
2021/10/16 19:04:47;;;;;;;;;;;18.50;44.80;;;;;;8233095;28;19953;-50
2021/10/16 19:08:48;;;;;;;;;;;18.50;44.70;;;;;;8231394;28;19914;-51
2021/10/16 19:12:49;;;;;;;;;;;18.50;44.70;;;;;;8232473;28;19914;-50
2021/10/16 19:16:49;;;;;;;;;;;18.60;44.80;;;;;;8231988;28;20004;-51
2021/10/16 19:20:50;;;;;;;;;;;18.50;44.80;;;;;;8231831;28;19921;-50
2021/10/16 19:24:50;;;;;;;;;;;18.50;44.70;;;;;;8232639;28;20295;-50
2021/10/16 19:28:51;;;;;;;;;;;18.50;44.70;;;;;;8232026;28;19917;-51
2021/10/16 19:32:51;;;;;;;;;;;18.50;44.70;;;;;;8231868;28;19914;-51
2021/10/16 19:36:52;;;;;;;;;;;18.60;44.70;;;;;;8237530;28;19914;-50
2021/10/16 19:40:52;;;;;;;;;;;18.60;44.70;;;;;;8238334;28;19968;-49
2021/10/16 19:44:53;;;;;;;;;;;18.50;44.60;;;;;;8236996;28;20325;-51
2021/10/16 19:48:57;;;;;;;;;;;18.50;44.70;;;;;;8237533;28;19984;-50
2021/10/16 19:52:57;;;;;;;;;;;18.50;44.70;;;;;;8237039;28;20290;-49
2021/10/16 19:56:58;;;;;;;;;;;18.50;44.70;;;;;;8237543;28;19915;-52
2021/10/16 20:01:02;;;;;;;;;;;18.50;44.60;;;;;;8237057;28;19961;-49
2021/10/16 20:05:03;;;;;;;;;;;18.50;44.60;;;;;;8236727;28;19929;-53
2021/10/16 20:09:03;;;;;;;;;;;18.50;44.60;;;;;;8236123;28;19960;-49
2021/10/16 20:13:04;;;;;;;;;;;18.50;44.60;;;;;;8236686;28;19918;-49
2021/10/16 20:17:05;;;;;;;;;;;18.50;44.60;;;;;;8237353;28;19920;-52
2021/10/16 20:21:05;;;;;;;;;;;18.50;44.60;;;;;;8235963;28;19914;-52
2021/10/16 20:25:07;;;;;;;;;;;18.50;44.60;;;;;;8221676;28;20009;-52
2021/10/16 20:29:07;;;;;;;;;;;18.50;44.60;;;;;;8236252;28;20008;-49
2021/10/16 20:33:08;;;;;;;;;;;18.50;44.60;;;;;;8236157;28;20355;-50
2021/10/16 20:37:08;;;;;;;;;;;18.50;44.60;;;;;;8235716;28;19916;-51
2021/10/16 20:41:09;;;;;;;;;;;18.50;44.50;;;;;;8235721;28;20327;-53
2021/10/16 20:45:10;;;;;;;;;;;18.50;44.50;;;;;;8234611;28;19926;-52
2021/10/16 20:49:10;;;;;;;;;;;18.50;44.50;;;;;;8235686;28;20439;-52
2021/10/16 20:53:11;;;;;;;;;;;18.50;44.50;;;;;;8236041;28;20263;-49
2021/10/16 20:57:12;;;;;;;;;;;18.50;44.40;;;;;;8234822;28;19922;-51
2021/10/16 21:01:12;;;;;;;;;;;18.40;44.40;;;;;;8235212;28;19914;-53
2021/10/16 21:05:13;;;;;;;;;;;18.40;44.40;;;;;;8234968;28;19933;-51
2021/10/16 21:09:13;;;;;;;;;;;18.40;44.40;;;;;;8235109;28;19910;-50
2021/10/16 21:13:14;;;;;;;;;;;18.50;44.40;;;;;;8234564;28;20268;-49
2021/10/16 21:17:14;;;;;;;;;;;18.40;44.40;;;;;;8234724;28;20375;-50
2021/10/16 21:21:15;;;;;;;;;;;18.40;44.40;;;;;;8234277;28;19914;-51
2021/10/16 21:25:15;;;;;;;;;;;18.40;44.40;;;;;;8235216;28;19922;-52
2021/10/16 21:29:16;;;;;;;;;;;18.40;44.40;;;;;;8234444;28;19918;-50
2021/10/16 21:33:17;;;;;;;;;;;18.40;44.40;;;;;;8233721;28;19921;-49
2021/10/16 21:37:18;;;;;;;;;;;18.40;44.40;;;;;;8234373;28;20377;-50
2021/10/16 21:41:19;;;;;;;;;;;18.40;44.30;;;;;;8233993;28;19914;-49
2021/10/16 21:45:19;;;;;;;;;;;18.40;44.40;;;;;;8234108;28;20008;-52
2021/10/16 21:49:21;;;;;;;;;;;18.40;44.40;;;;;;8233972;28;19922;-50
2021/10/16 21:53:21;;;;;;;;;;;18.40;44.30;;;;;;8234129;28;19965;-51
2021/10/16 21:57:22;;;;;;;;;;;18.40;44.30;;;;;;8232467;28;19914;-51
2021/10/16 22:01:22;;;;;;;;;;;18.40;44.40;;;;;;8230172;28;20004;-49
2021/10/16 22:05:23;;;;;;;;;;;18.30;44.40;;;;;;8233512;28;20358;-53
2021/10/16 22:09:24;;;;;;;;;;;18.30;44.30;;;;;;8247077;28;20267;-49
2021/10/16 22:13:25;;;;;;;;;;;18.30;44.40;;;;;;8233404;28;20009;-50
2021/10/16 22:17:26;;;;;;;;;;;18.30;44.40;;;;;;8234075;28;19917;-50
2021/10/16 22:21:26;;;;;;;;;;;18.30;44.40;;;;;;8232484;28;19965;-49
2021/10/16 22:25:27;;;;;;;;;;;18.30;44.30;;;;;;8232894;28;19922;-50
2021/10/16 22:29:27;;;;;;;;;;;18.30;44.30;;;;;;8232801;28;20396;-49
2021/10/16 22:33:27;;;;;;;;;;;18.30;44.40;;;;;;8232468;28;20048;-49
2021/10/16 22:37:28;;;;;;;;;;;18.30;44.30;;;;;;8233738;28;20358;-50
2021/10/16 22:41:30;;;;;;;;;;;18.30;44.40;;;;;;8232719;28;19921;-51
2021/10/16 22:45:31;;;;;;;;;;;18.30;44.30;;;;;;8232240;28;19976;-52
2021/10/16 22:49:32;;;;;;;;;;;18.30;44.30;;;;;;8232558;28;20381;-51
2021/10/16 22:53:33;;;;;;;;;;;18.30;44.30;;;;;;8233113;28;20268;-50
2021/10/16 22:57:39;;;;;;;;;;;18.20;44.80;;;;;;8232201;28;19914;-52
2021/10/16 23:01:40;;;;;;;;;;;18.20;44.30;;;;;;8237825;28;20398;-50
2021/10/16 23:05:40;;;;;;;;;;;18.20;44.30;;;;;;8232403;28;19922;-50
2021/10/16 23:09:41;;;;;;;;;;;18.20;44.30;;;;;;8236758;28;20057;-51
2021/10/16 23:13:41;;;;;;;;;;;18.20;44.30;;;;;;8239104;28;19918;-50
2021/10/16 23:17:42;;;;;;;;;;;18.20;44.30;;;;;;8237791;28;19918;-47
2021/10/16 23:21:42;;;;;;;;;;;18.20;44.30;;;;;;8238331;28;19921;-52